sensor_id;sensor_type;location;lat;lon;timestamp;pressure;altitude;pressure_sealevel;temperature
40047;BMP280;31510;48.122;11.576;2023-02-27T00:00:37;95797.78;;;-0.76
40047;BMP280;31510;48.122;11.576;2023-02-27T00:03:03;95788.06;;;-0.76
40047;BMP280;31510;48.122;11.576;2023-02-27T00:05:28;95787.66;;;-0.78
40047;BMP280;31510;48.122;11.576;2023-02-27T00:07:53;95807.09;;;-0.82
40047;BMP280;31510;48.122;11.576;2023-02-27T00:10:18;95800.31;;;-0.86
40047;BMP280;31510;48.122;11.576;2023-02-27T00:12:44;95792.53;;;-0.80
40047;BMP280;31510;48.122;11.576;2023-02-27T00:15:12;95795.56;;;-0.71
40047;BMP280;31510;48.122;11.576;2023-02-27T00:17:38;95813.19;;;-0.68
40047;BMP280;31510;48.122;11.576;2023-02-27T00:20:05;95805.69;;;-0.69
40047;BMP280;31510;48.122;11.576;2023-02-27T00:22:31;95797.44;;;-0.75
40047;BMP280;31510;48.122;11.576;2023-02-27T00:24:56;95796.59;;;-0.85
40047;BMP280;31510;48.122;11.576;2023-02-27T00:27:21;95804.47;;;-0.85
40047;BMP280;31510;48.122;11.576;2023-02-27T00:29:47;95797.31;;;-0.88
40047;BMP280;31510;48.122;11.576;2023-02-27T00:32:12;95800.72;;;-0.84
40047;BMP280;31510;48.122;11.576;2023-02-27T00:34:38;95795.53;;;-0.78
40047;BMP280;31510;48.122;11.576;2023-02-27T00:37:03;95794.06;;;-0.75
40047;BMP280;31510;48.122;11.576;2023-02-27T00:39:28;95799.28;;;-0.79
40047;BMP280;31510;48.122;11.576;2023-02-27T00:41:53;95807.88;;;-0.78
40047;BMP280;31510;48.122;11.576;2023-02-27T00:44:19;95800.38;;;-0.80
40047;BMP280;31510;48.122;11.576;2023-02-27T00:46:44;95798.13;;;-0.81
40047;BMP280;31510;48.122;11.576;2023-02-27T00:49:09;95806.34;;;-0.86
40047;BMP280;31510;48.122;11.576;2023-02-27T00:51:35;95792.13;;;-0.85
40047;BMP280;31510;48.122;11.576;2023-02-27T00:54:00;95799.66;;;-0.77
40047;BMP280;31510;48.122;11.576;2023-02-27T00:56:25;95808.66;;;-0.71
40047;BMP280;31510;48.122;11.576;2023-02-27T00:58:50;95804.94;;;-0.70
40047;BMP280;31510;48.122;11.576;2023-02-27T01:01:16;95803.78;;;-0.72
40047;BMP280;31510;48.122;11.576;2023-02-27T01:03:41;95804.94;;;-0.73
40047;BMP280;31510;48.122;11.576;2023-02-27T01:06:06;95805.66;;;-0.73
40047;BMP280;31510;48.122;11.576;2023-02-27T01:08:32;95809.41;;;-0.74
40047;BMP280;31510;48.122;11.576;2023-02-27T01:10:58;95809.28;;;-0.91
40047;BMP280;31510;48.122;11.576;2023-02-27T01:13:23;95816.28;;;-1.02
40047;BMP280;31510;48.122;11.576;2023-02-27T01:15:48;95805.44;;;-1.00
40047;BMP280;31510;48.122;11.576;2023-02-27T01:18:14;95807.66;;;-1.02
40047;BMP280;31510;48.122;11.576;2023-02-27T01:20:39;95800.88;;;-1.10
40047;BMP280;31510;48.122;11.576;2023-02-27T01:23:04;95797.47;;;-1.18
40047;BMP280;31510;48.122;11.576;2023-02-27T01:25:30;95795.25;;;-1.16
40047;BMP280;31510;48.122;11.576;2023-02-27T01:27:55;95794.91;;;-1.07
40047;BMP280;31510;48.122;11.576;2023-02-27T01:30:20;95802.84;;;-0.97
40047;BMP280;31510;48.122;11.576;2023-02-27T01:32:45;95799.16;;;-0.92
40047;BMP280;31510;48.122;11.576;2023-02-27T01:35:11;95797.28;;;-0.92
40047;BMP280;31510;48.122;11.576;2023-02-27T01:37:37;95801.44;;;-0.91
40047;BMP280;31510;48.122;11.576;2023-02-27T01:40:02;95798.03;;;-0.91
40047;BMP280;31510;48.122;11.576;2023-02-27T01:42:28;95802.53;;;-0.92
40047;BMP280;31510;48.122;11.576;2023-02-27T01:47:44;95801.03;;;-0.93
40047;BMP280;31510;48.122;11.576;2023-02-27T01:50:11;95810.72;;;-0.97
40047;BMP280;31510;48.122;11.576;2023-02-27T01:52:38;95799.81;;;-1.02
40047;BMP280;31510;48.122;11.576;2023-02-27T01:55:05;95808.41;;;-1.05
40047;BMP280;31510;48.122;11.576;2023-02-27T01:57:34;95802.75;;;-1.11
40047;BMP280;31510;48.122;11.576;2023-02-27T02:00:00;95807.25;;;-1.08
40047;BMP280;31510;48.122;11.576;2023-02-27T02:02:29;95803.53;;;-1.07
40047;BMP280;31510;48.122;11.576;2023-02-27T02:04:58;95809.94;;;-1.01
40047;BMP280;31510;48.122;11.576;2023-02-27T02:07:24;95806.91;;;-1.06
40047;BMP280;31510;48.122;11.576;2023-02-27T02:09:52;95803.88;;;-1.08
40047;BMP280;31510;48.122;11.576;2023-02-27T02:12:23;95809.94;;;-1.01
40047;BMP280;31510;48.122;11.576;2023-02-27T02:14:49;95813.72;;;-0.98
40047;BMP280;31510;48.122;11.576;2023-02-27T02:22:47;95810.66;;;-1.04
40047;BMP280;31510;48.122;11.576;2023-02-27T02:39:01;95794.84;;;-1.18
40047;BMP280;31510;48.122;11.576;2023-02-27T02:41:42;95792.59;;;-1.19
40047;BMP280;31510;48.122;11.576;2023-02-27T02:47:03;95787.06;;;-1.07
40047;BMP280;31510;48.122;11.576;2023-02-27T02:49:43;95790.38;;;-1.14
40047;BMP280;31510;48.122;11.576;2023-02-27T02:55:09;95792.97;;;-1.17
40047;BMP280;31510;48.122;11.576;2023-02-27T02:57:41;95800.81;;;-1.17
40047;BMP280;31510;48.122;11.576;2023-02-27T03:00:14;95810.13;;;-1.20
40047;BMP280;31510;48.122;11.576;2023-02-27T03:02:51;95803.81;;;-1.19
40047;BMP280;31510;48.122;11.576;2023-02-27T03:05:23;95809.03;;;-1.19
40047;BMP280;31510;48.122;11.576;2023-02-27T03:07:55;95806.44;;;-1.15
40047;BMP280;31510;48.122;11.576;2023-02-27T03:10:42;95803.84;;;-1.15
40047;BMP280;31510;48.122;11.576;2023-02-27T03:13:17;95797.81;;;-1.19
40047;BMP280;31510;48.122;11.576;2023-02-27T03:15:48;95799.28;;;-1.21
40047;BMP280;31510;48.122;11.576;2023-02-27T03:18:26;95795.63;;;-1.14
40047;BMP280;31510;48.122;11.576;2023-02-27T03:20:57;95793.75;;;-1.13
40047;BMP280;31510;48.122;11.576;2023-02-27T03:23:28;95794.84;;;-1.18
40047;BMP280;31510;48.122;11.576;2023-02-27T03:25:54;95800.84;;;-1.14
40047;BMP280;31510;48.122;11.576;2023-02-27T03:28:24;95802.72;;;-1.14
40047;BMP280;31510;48.122;11.576;2023-02-27T03:30:52;95815.81;;;-1.14
40047;BMP280;31510;48.122;11.576;2023-02-27T03:33:26;95809.00;;;-1.22
40047;BMP280;31510;48.122;11.576;2023-02-27T03:41:25;95819.00;;;-1.31
40047;BMP280;31510;48.122;11.576;2023-02-27T03:44:09;95819.41;;;-1.29
40047;BMP280;31510;48.122;11.576;2023-02-27T03:46:35;95823.19;;;-1.26
40047;BMP280;31510;48.122;11.576;2023-02-27T03:49:01;95822.41;;;-1.27
40047;BMP280;31510;48.122;11.576;2023-02-27T03:51:27;95819.09;;;-1.20
40047;BMP280;31510;48.122;11.576;2023-02-27T03:56:24;95827.84;;;-1.06
40047;BMP280;31510;48.122;11.576;2023-02-27T03:58:50;95819.59;;;-1.08
40047;BMP280;31510;48.122;11.576;2023-02-27T04:01:16;95830.03;;;-1.12
40047;BMP280;31510;48.122;11.576;2023-02-27T04:03:47;95821.81;;;-1.10
40047;BMP280;31510;48.122;11.576;2023-02-27T04:06:13;95821.47;;;-1.09
40047;BMP280;31510;48.122;11.576;2023-02-27T04:11:40;95822.22;;;-1.08
40047;BMP280;31510;48.122;11.576;2023-02-27T04:14:35;95829.34;;;-1.05
40047;BMP280;31510;48.122;11.576;2023-02-27T04:19:50;95826.34;;;-1.04
40047;BMP280;31510;48.122;11.576;2023-02-27T04:22:31;95831.19;;;-1.06
40047;BMP280;31510;48.122;11.576;2023-02-27T04:25:05;95834.16;;;-1.07
40047;BMP280;31510;48.122;11.576;2023-02-27T04:30:52;95832.66;;;-1.12
40047;BMP280;31510;48.122;11.576;2023-02-27T04:39:08;95834.53;;;-1.12
40047;BMP280;31510;48.122;11.576;2023-02-27T04:44:03;95840.88;;;-1.10
40047;BMP280;31510;48.122;11.576;2023-02-27T04:46:30;95842.38;;;-1.12
40047;BMP280;31510;48.122;11.576;2023-02-27T04:49:12;95835.63;;;-1.13
40047;BMP280;31510;48.122;11.576;2023-02-27T04:51:47;95833.38;;;-1.11
40047;BMP280;31510;48.122;11.576;2023-02-27T04:54:21;95838.66;;;-1.08
40047;BMP280;31510;48.122;11.576;2023-02-27T04:56:56;95830.78;;;-1.11
40047;BMP280;31510;48.122;11.576;2023-02-27T04:59:24;95835.28;;;-1.08
40047;BMP280;31510;48.122;11.576;2023-02-27T05:04:24;95825.63;;;-1.01
40047;BMP280;31510;48.122;11.576;2023-02-27T05:06:53;95822.28;;;-1.01
40047;BMP280;31510;48.122;11.576;2023-02-27T05:09:39;95817.41;;;-1.03
40047;BMP280;31510;48.122;11.576;2023-02-27T05:12:14;95825.25;;;-1.03
40047;BMP280;31510;48.122;11.576;2023-02-27T05:15:04;95820.72;;;-1.06
40047;BMP280;31510;48.122;11.576;2023-02-27T05:17:35;95825.97;;;-1.06
40047;BMP280;31510;48.122;11.576;2023-02-27T05:20:02;95825.97;;;-1.06
40047;BMP280;31510;48.122;11.576;2023-02-27T05:22:50;95833.75;;;-1.13
40047;BMP280;31510;48.122;11.576;2023-02-27T05:25:54;95834.84;;;-1.17
40047;BMP280;31510;48.122;11.576;2023-02-27T05:28:29;95828.47;;;-1.16
40047;BMP280;31510;48.122;11.576;2023-02-27T05:31:14;95827.03;;;-1.14
40047;BMP280;31510;48.122;11.576;2023-02-27T05:34:20;95839.31;;;-1.18
40047;BMP280;31510;48.122;11.576;2023-02-27T05:36:59;95834.06;;;-1.21
40047;BMP280;31510;48.122;11.576;2023-02-27T05:39:29;95831.81;;;-1.22
40047;BMP280;31510;48.122;11.576;2023-02-27T05:42:10;95835.88;;;-1.25
40047;BMP280;31510;48.122;11.576;2023-02-27T05:44:41;95834.41;;;-1.22
40047;BMP280;31510;48.122;11.576;2023-02-27T05:47:11;95828.44;;;-1.20
40047;BMP280;31510;48.122;11.576;2023-02-27T05:50:02;95833.69;;;-1.20
40047;BMP280;31510;48.122;11.576;2023-02-27T05:52:29;95834.09;;;-1.18
40047;BMP280;31510;48.122;11.576;2023-02-27T05:55:10;95834.84;;;-1.17
40047;BMP280;31510;48.122;11.576;2023-02-27T05:57:43;95838.19;;;-1.17
40047;BMP280;31510;48.122;11.576;2023-02-27T06:00:19;95840.44;;;-1.19
40047;BMP280;31510;48.122;11.576;2023-02-27T06:02:45;95836.72;;;-1.18
40047;BMP280;31510;48.122;11.576;2023-02-27T06:05:13;95839.66;;;-1.22
40047;BMP280;31510;48.122;11.576;2023-02-27T06:07:38;95843.69;;;-1.28
40047;BMP280;31510;48.122;11.576;2023-02-27T06:10:04;95842.56;;;-1.31
40047;BMP280;31510;48.122;11.576;2023-02-27T06:12:30;95851.09;;;-1.34
40047;BMP280;31510;48.122;11.576;2023-02-27T06:14:55;95846.66;;;-1.33
40047;BMP280;31510;48.122;11.576;2023-02-27T06:17:21;95852.19;;;-1.38
40047;BMP280;31510;48.122;11.576;2023-02-27T06:19:46;95848.84;;;-1.35
40047;BMP280;31510;48.122;11.576;2023-02-27T06:22:11;95850.03;;;-1.29
40047;BMP280;31510;48.122;11.576;2023-02-27T06:24:37;95856.09;;;-1.22
40047;BMP280;31510;48.122;11.576;2023-02-27T06:27:02;95860.22;;;-1.21
40047;BMP280;31510;48.122;11.576;2023-02-27T06:29:27;95855.75;;;-1.20
40047;BMP280;31510;48.122;11.576;2023-02-27T06:31:53;95864.69;;;-1.21
40047;BMP280;31510;48.122;11.576;2023-02-27T06:34:18;95865.38;;;-1.28
40047;BMP280;31510;48.122;11.576;2023-02-27T06:36:43;95857.50;;;-1.31
40047;BMP280;31510;48.122;11.576;2023-02-27T06:39:09;95862.81;;;-1.24
40047;BMP280;31510;48.122;11.576;2023-02-27T06:41:34;95869.91;;;-1.21
40047;BMP280;31510;48.122;11.576;2023-02-27T06:44:00;95862.09;;;-1.18
40047;BMP280;31510;48.122;11.576;2023-02-27T06:46:25;95860.66;;;-1.16
40047;BMP280;31510;48.122;11.576;2023-02-27T06:48:50;95869.69;;;-1.10
40047;BMP280;31510;48.122;11.576;2023-02-27T06:51:16;95870.44;;;-1.06
40047;BMP280;31510;48.122;11.576;2023-02-27T06:53:41;95865.56;;;-1.11
40047;BMP280;31510;48.122;11.576;2023-02-27T06:56:07;95868.56;;;-1.09
40047;BMP280;31510;48.122;11.576;2023-02-27T06:58:32;95876.03;;;-1.07
40047;BMP280;31510;48.122;11.576;2023-02-27T07:00:58;95869.63;;;-1.13
40047;BMP280;31510;48.122;11.576;2023-02-27T07:03:24;95872.97;;;-1.16
40047;BMP280;31510;48.122;11.576;2023-02-27T07:05:50;95871.13;;;-1.16
40047;BMP280;31510;48.122;11.576;2023-02-27T07:08:15;95859.56;;;-1.11
40047;BMP280;31510;48.122;11.576;2023-02-27T07:10:42;95875.25;;;-1.11
40047;BMP280;31510;48.122;11.576;2023-02-27T07:13:10;95867.44;;;-1.08
40047;BMP280;31510;48.122;11.576;2023-02-27T07:15:35;95881.28;;;-1.07
40047;BMP280;31510;48.122;11.576;2023-02-27T07:18:01;95877.53;;;-1.10
40047;BMP280;31510;48.122;11.576;2023-02-27T07:20:26;95877.16;;;-1.08
40047;BMP280;31510;48.122;11.576;2023-02-27T07:22:51;95867.78;;;-1.13
40047;BMP280;31510;48.122;11.576;2023-02-27T07:25:17;95871.50;;;-1.14
40047;BMP280;31510;48.122;11.576;2023-02-27T07:27:42;95879.09;;;-1.05
40047;BMP280;31510;48.122;11.576;2023-02-27T07:30:10;95880.28;;;-0.96
40047;BMP280;31510;48.122;11.576;2023-02-27T07:32:35;95880.66;;;-0.94
40047;BMP280;31510;48.122;11.576;2023-02-27T07:35:01;95885.50;;;-0.96
40047;BMP280;31510;48.122;11.576;2023-02-27T07:37:28;95894.88;;;-0.91
40047;BMP280;31510;48.122;11.576;2023-02-27T07:39:53;95890.47;;;-0.87
40047;BMP280;31510;48.122;11.576;2023-02-27T07:42:18;95893.84;;;-0.83
40047;BMP280;31510;48.122;11.576;2023-02-27T07:44:43;95900.66;;;-0.79
40047;BMP280;31510;48.122;11.576;2023-02-27T07:47:09;95902.53;;;-0.76
40047;BMP280;31510;48.122;11.576;2023-02-27T07:49:35;95901.75;;;-0.80
40047;BMP280;31510;48.122;11.576;2023-02-27T07:52:00;95894.63;;;-0.80
40047;BMP280;31510;48.122;11.576;2023-02-27T07:54:26;95889.75;;;-0.81
40047;BMP280;31510;48.122;11.576;2023-02-27T07:56:51;95891.66;;;-0.78
40047;BMP280;31510;48.122;11.576;2023-02-27T07:59:16;95899.22;;;-0.70
40047;BMP280;31510;48.122;11.576;2023-02-27T08:01:42;95906.78;;;-0.61
40047;BMP280;31510;48.122;11.576;2023-02-27T08:04:07;95912.03;;;-0.61
40047;BMP280;31510;48.122;11.576;2023-02-27T08:06:33;95898.19;;;-0.58
40047;BMP280;31510;48.122;11.576;2023-02-27T08:08:59;95913.53;;;-0.57
40047;BMP280;31510;48.122;11.576;2023-02-27T08:11:25;95902.72;;;-0.55
40047;BMP280;31510;48.122;11.576;2023-02-27T08:13:50;95900.84;;;-0.55
40047;BMP280;31510;48.122;11.576;2023-02-27T08:16:15;95904.94;;;-0.57
40047;BMP280;31510;48.122;11.576;2023-02-27T08:18:41;95911.66;;;-0.56
40047;BMP280;31510;48.122;11.576;2023-02-27T08:21:06;95901.94;;;-0.59
40047;BMP280;31510;48.122;11.576;2023-02-27T08:23:32;95909.78;;;-0.59
40047;BMP280;31510;48.122;11.576;2023-02-27T08:25:59;95909.47;;;-0.54
40047;BMP280;31510;48.122;11.576;2023-02-27T08:28:25;95894.53;;;-0.50
40047;BMP280;31510;48.122;11.576;2023-02-27T08:30:51;95908.78;;;-0.44
40047;BMP280;31510;48.122;11.576;2023-02-27T08:33:17;95909.91;;;-0.45
40047;BMP280;31510;48.122;11.576;2023-02-27T08:35:42;95914.00;;;-0.48
40047;BMP280;31510;48.122;11.576;2023-02-27T08:38:07;95921.53;;;-0.43
40047;BMP280;31510;48.122;11.576;2023-02-27T08:40:33;95925.97;;;-0.50
40047;BMP280;31510;48.122;11.576;2023-02-27T08:42:58;95932.63;;;-0.56
40047;BMP280;31510;48.122;11.576;2023-02-27T08:45:24;95946.56;;;-0.49
40047;BMP280;31510;48.122;11.576;2023-02-27T08:47:49;95933.09;;;-0.44
40047;BMP280;31510;48.122;11.576;2023-02-27T08:50:14;95931.63;;;-0.45
40047;BMP280;31510;48.122;11.576;2023-02-27T08:52:40;95923.78;;;-0.41
40047;BMP280;31510;48.122;11.576;2023-02-27T08:55:05;95949.31;;;-0.32
40047;BMP280;31510;48.122;11.576;2023-02-27T08:57:31;95917.50;;;-0.30
40047;BMP280;31510;48.122;11.576;2023-02-27T08:59:56;95948.91;;;-0.34
40047;BMP280;31510;48.122;11.576;2023-02-27T09:02:22;95942.16;;;-0.38
40047;BMP280;31510;48.122;11.576;2023-02-27T09:04:50;95930.56;;;-0.34
40047;BMP280;31510;48.122;11.576;2023-02-27T09:07:16;95940.00;;;-0.26
40047;BMP280;31510;48.122;11.576;2023-02-27T09:09:41;95946.75;;;-0.25
40047;BMP280;31510;48.122;11.576;2023-02-27T09:12:06;95963.59;;;-0.26
40047;BMP280;31510;48.122;11.576;2023-02-27T09:14:31;95940.03;;;-0.22
40047;BMP280;31510;48.122;11.576;2023-02-27T09:16:57;95939.28;;;-0.23
40047;BMP280;31510;48.122;11.576;2023-02-27T09:19:22;95953.56;;;-0.13
40047;BMP280;31510;48.122;11.576;2023-02-27T09:21:48;95948.38;;;-0.10
40047;BMP280;31510;48.122;11.576;2023-02-27T09:24:13;95954.72;;;-0.07
40047;BMP280;31510;48.122;11.576;2023-02-27T09:26:38;95955.56;;;0.00
40047;BMP280;31510;48.122;11.576;2023-02-27T09:29:04;95941.34;;;0.04
40047;BMP280;31510;48.122;11.576;2023-02-27T09:31:29;95940.59;;;0.04
40047;BMP280;31510;48.122;11.576;2023-02-27T09:33:54;95957.81;;;0.05
40047;BMP280;31510;48.122;11.576;2023-02-27T09:36:21;95965.69;;;0.05
40047;BMP280;31510;48.122;11.576;2023-02-27T09:38:47;95973.91;;;0.00
40047;BMP280;31510;48.122;11.576;2023-02-27T09:43:49;95974.63;;;-0.03
40047;BMP280;31510;48.122;11.576;2023-02-27T09:46:20;95978.34;;;-0.04
40047;BMP280;31510;48.122;11.576;2023-02-27T09:48:51;95986.63;;;0.01
40047;BMP280;31510;48.122;11.576;2023-02-27T09:51:17;95985.16;;;0.04
40047;BMP280;31510;48.122;11.576;2023-02-27T09:53:46;95982.84;;;-0.04
40047;BMP280;31510;48.122;11.576;2023-02-27T09:56:23;95997.81;;;-0.08
40047;BMP280;31510;48.122;11.576;2023-02-27T09:58:57;95985.38;;;-0.18
40047;BMP280;31510;48.122;11.576;2023-02-27T10:06:51;95997.81;;;-0.08
40047;BMP280;31510;48.122;11.576;2023-02-27T10:09:27;96010.22;;;0.01
40047;BMP280;31510;48.122;11.576;2023-02-27T10:12:05;96011.72;;;-0.01
40047;BMP280;31510;48.122;11.576;2023-02-27T10:14:44;95999.63;;;-0.12
40047;BMP280;31510;48.122;11.576;2023-02-27T10:17:18;96009.72;;;-0.14
40047;BMP280;31510;48.122;11.576;2023-02-27T10:19:46;96005.66;;;-0.12
40047;BMP280;31510;48.122;11.576;2023-02-27T10:22:19;96005.69;;;-0.05
40047;BMP280;31510;48.122;11.576;2023-02-27T10:24:53;96020.38;;;0.06
40047;BMP280;31510;48.122;11.576;2023-02-27T10:27:20;96006.22;;;0.14
40047;BMP280;31510;48.122;11.576;2023-02-27T10:29:46;96012.25;;;0.18
40047;BMP280;31510;48.122;11.576;2023-02-27T10:32:24;96010.38;;;0.19
40047;BMP280;31510;48.122;11.576;2023-02-27T10:34:57;96017.94;;;0.27
40047;BMP280;31510;48.122;11.576;2023-02-27T10:37:25;96013.06;;;0.29
40047;BMP280;31510;48.122;11.576;2023-02-27T10:39:56;96023.56;;;0.29
40047;BMP280;31510;48.122;11.576;2023-02-27T10:42:28;96023.16;;;0.24
40047;BMP280;31510;48.122;11.576;2023-02-27T10:44:55;96019.41;;;0.25
40047;BMP280;31510;48.122;11.576;2023-02-27T10:47:22;96017.19;;;0.27
40047;BMP280;31510;48.122;11.576;2023-02-27T10:49:48;96014.56;;;0.27
40047;BMP280;31510;48.122;11.576;2023-02-27T10:52:15;96024.66;;;0.25
40047;BMP280;31510;48.122;11.576;2023-02-27T10:54:41;96033.97;;;0.19
40047;BMP280;31510;48.122;11.576;2023-02-27T10:57:27;96022.03;;;0.21
40047;BMP280;31510;48.122;11.576;2023-02-27T10:59:57;96025.03;;;0.23
40047;BMP280;31510;48.122;11.576;2023-02-27T11:02:35;96021.63;;;0.23
40047;BMP280;31510;48.122;11.576;2023-02-27T11:05:03;96027.66;;;0.23
40047;BMP280;31510;48.122;11.576;2023-02-27T11:07:36;96012.66;;;0.24
40047;BMP280;31510;48.122;11.576;2023-02-27T11:12:36;96027.94;;;0.15
40047;BMP280;31510;48.122;11.576;2023-02-27T11:15:23;96039.19;;;0.15
40047;BMP280;31510;48.122;11.576;2023-02-27T11:17:49;96032.09;;;0.19
40047;BMP280;31510;48.122;11.576;2023-02-27T11:25:32;96012.97;;;0.15
40047;BMP280;31510;48.122;11.576;2023-02-27T11:31:03;96014.03;;;0.07
40047;BMP280;31510;48.122;11.576;2023-02-27T11:33:37;96017.06;;;0.09
40047;BMP280;31510;48.122;11.576;2023-02-27T11:36:03;96030.91;;;0.10
40047;BMP280;31510;48.122;11.576;2023-02-27T11:38:30;96017.41;;;0.08
40047;BMP280;31510;48.122;11.576;2023-02-27T11:41:01;95999.81;;;0.12
40047;BMP280;31510;48.122;11.576;2023-02-27T11:43:34;96011.09;;;0.12
40047;BMP280;31510;48.122;11.576;2023-02-27T11:46:06;96016.69;;;0.11
40047;BMP280;31510;48.122;11.576;2023-02-27T11:48:38;96006.97;;;0.15
40047;BMP280;31510;48.122;11.576;2023-02-27T11:54:05;95993.16;;;0.21
40047;BMP280;31510;48.122;11.576;2023-02-27T11:56:45;96009.66;;;0.22
40047;BMP280;31510;48.122;11.576;2023-02-27T12:06:51;96003.75;;;0.38
40047;BMP280;31510;48.122;11.576;2023-02-27T12:09:38;96007.50;;;0.38
40047;BMP280;31510;48.122;11.576;2023-02-27T12:12:28;96005.50;;;0.21
40047;BMP280;31510;48.122;11.576;2023-02-27T12:15:03;96003.59;;;0.11
40047;BMP280;31510;48.122;11.576;2023-02-27T12:17:43;96000.91;;;0.04
40047;BMP280;31510;48.122;11.576;2023-02-27T12:20:24;96009.88;;;0.03
40047;BMP280;31510;48.122;11.576;2023-02-27T12:22:52;96011.75;;;0.02
40047;BMP280;31510;48.122;11.576;2023-02-27T12:28:00;96005.06;;;0.12
40047;BMP280;31510;48.122;11.576;2023-02-27T12:30:32;96021.53;;;0.05
40047;BMP280;31510;48.122;11.576;2023-02-27T12:35:50;95995.38;;;0.16
40047;BMP280;31510;48.122;11.576;2023-02-27T12:38:17;96007.69;;;0.12
40047;BMP280;31510;48.122;11.576;2023-02-27T12:43:32;95997.59;;;0.14
40047;BMP280;31510;48.122;11.576;2023-02-27T12:48:58;96010.38;;;0.19
40047;BMP280;31510;48.122;11.576;2023-02-27T12:51:56;96013.41;;;0.24
40047;BMP280;31510;48.122;11.576;2023-02-27T13:07:27;95999.91;;;0.22
40047;BMP280;31510;48.122;11.576;2023-02-27T13:09:57;96000.66;;;0.23
40047;BMP280;31510;48.122;11.576;2023-02-27T13:12:36;96001.81;;;0.29
40047;BMP280;31510;48.122;11.576;2023-02-27T13:15:15;96003.34;;;0.33
40047;BMP280;31510;48.122;11.576;2023-02-27T13:18:00;96008.91;;;0.21
40047;BMP280;31510;48.122;11.576;2023-02-27T13:20:52;96015.53;;;0.08
40047;BMP280;31510;48.122;11.576;2023-02-27T13:23:41;96005.44;;;0.10
40047;BMP280;31510;48.122;11.576;2023-02-27T13:26:24;96006.59;;;0.13
40047;BMP280;31510;48.122;11.576;2023-02-27T13:28:51;96008.47;;;0.12
40047;BMP280;31510;48.122;11.576;2023-02-27T13:31:28;96003.25;;;0.16
40047;BMP280;31510;48.122;11.576;2023-02-27T13:34:14;96006.66;;;0.23
40047;BMP280;31510;48.122;11.576;2023-02-27T13:36:55;96005.50;;;0.21
40047;BMP280;31510;48.122;11.576;2023-02-27T13:49:58;96006.09;;;0.50
40047;BMP280;31510;48.122;11.576;2023-02-27T13:52:31;96016.53;;;0.43
40047;BMP280;31510;48.122;11.576;2023-02-27T13:54:58;96012.03;;;0.40
40047;BMP280;31510;48.122;11.576;2023-02-27T13:57:29;96010.78;;;0.24
40047;BMP280;31510;48.122;11.576;2023-02-27T13:59:58;96004.72;;;0.13
40047;BMP280;31510;48.122;11.576;2023-02-27T14:02:30;96013.69;;;0.09
40047;BMP280;31510;48.122;11.576;2023-02-27T14:04:58;96006.91;;;0.08
40047;BMP280;31510;48.122;11.576;2023-02-27T14:07:27;96002.84;;;0.14
40047;BMP280;31510;48.122;11.576;2023-02-27T14:10:06;95999.06;;;0.08
40047;BMP280;31510;48.122;11.576;2023-02-27T14:12:39;95993.03;;;0.04
40047;BMP280;31510;48.122;11.576;2023-02-27T14:17:39;96005.44;;;0.10
40047;BMP280;31510;48.122;11.576;2023-02-27T14:28:29;95998.69;;;0.09
40047;BMP280;31510;48.122;11.576;2023-02-27T14:31:00;96001.72;;;0.15
40047;BMP280;31510;48.122;11.576;2023-02-27T14:33:32;96004.72;;;0.13
40047;BMP280;31510;48.122;11.576;2023-02-27T14:36:01;96036.59;;;0.19
40047;BMP280;31510;48.122;11.576;2023-02-27T14:38:28;96012.25;;;0.18
40047;BMP280;31510;48.122;11.576;2023-02-27T14:43:58;96006.44;;;-0.04
40047;BMP280;31510;48.122;11.576;2023-02-27T14:46:27;96018.88;;;0.02
40047;BMP280;31510;48.122;11.576;2023-02-27T14:48:55;96009.50;;;0.04
40047;BMP280;31510;48.122;11.576;2023-02-27T14:51:22;96004.25;;;0.01
40047;BMP280;31510;48.122;11.576;2023-02-27T14:54:06;96004.97;;;-0.02
40047;BMP280;31510;48.122;11.576;2023-02-27T14:56:36;96009.47;;;-0.02
40047;BMP280;31510;48.122;11.576;2023-02-27T14:59:01;96019.53;;;-0.08
40047;BMP280;31510;48.122;11.576;2023-02-27T15:01:32;96004.19;;;-0.06
40047;BMP280;31510;48.122;11.576;2023-02-27T15:03:59;96012.78;;;-0.05
40047;BMP280;31510;48.122;11.576;2023-02-27T15:06:45;96012.34;;;-0.14
40047;BMP280;31510;48.122;11.576;2023-02-27T15:09:22;96017.56;;;-0.18
40047;BMP280;31510;48.122;11.576;2023-02-27T15:11:50;96012.00;;;-0.13
40047;BMP280;31510;48.122;11.576;2023-02-27T15:14:30;96014.69;;;-0.02
40047;BMP280;31510;48.122;11.576;2023-02-27T15:16:56;96020.34;;;0.03
40047;BMP280;31510;48.122;11.576;2023-02-27T15:19:24;96019.66;;;0.06
40047;BMP280;31510;48.122;11.576;2023-02-27T15:22:01;96017.41;;;0.08
40047;BMP280;31510;48.122;11.576;2023-02-27T15:24:31;96027.91;;;0.08
40047;BMP280;31510;48.122;11.576;2023-02-27T15:27:03;96021.91;;;0.07
40047;BMP280;31510;48.122;11.576;2023-02-27T15:29:43;96030.47;;;0.01
40047;BMP280;31510;48.122;11.576;2023-02-27T15:32:20;96031.91;;;-0.05
40047;BMP280;31510;48.122;11.576;2023-02-27T15:34:46;96027.06;;;-0.03
40047;BMP280;31510;48.122;11.576;2023-02-27T15:37:24;96024.09;;;-0.01
40047;BMP280;31510;48.122;11.576;2023-02-27T15:39:51;96030.84;;;0.03
40047;BMP280;31510;48.122;11.576;2023-02-27T15:42:22;96022.22;;;0.02
40047;BMP280;31510;48.122;11.576;2023-02-27T15:44:48;96029.38;;;0.05
40047;BMP280;31510;48.122;11.576;2023-02-27T15:47:21;96028.22;;;0.03
40047;BMP280;31510;48.122;11.576;2023-02-27T15:49:51;96040.59;;;0.02
40047;BMP280;31510;48.122;11.576;2023-02-27T15:52:21;96038.38;;;0.08
40047;BMP280;31510;48.122;11.576;2023-02-27T15:54:57;96036.09;;;0.03
40047;BMP280;31510;48.122;11.576;2023-02-27T15:57:23;96037.63;;;0.07
40047;BMP280;31510;48.122;11.576;2023-02-27T15:59:49;96049.28;;;0.13
40047;BMP280;31510;48.122;11.576;2023-02-27T16:02:23;96039.97;;;0.16
40047;BMP280;31510;48.122;11.576;2023-02-27T16:04:50;96056.41;;;0.13
40047;BMP280;31510;48.122;11.576;2023-02-27T16:07:22;96051.09;;;0.06
40047;BMP280;31510;48.122;11.576;2023-02-27T16:09:56;96052.97;;;0.05
40047;BMP280;31510;48.122;11.576;2023-02-27T16:15:21;96046.22;;;0.04
40047;BMP280;31510;48.122;11.576;2023-02-27T16:25:33;96071.66;;;0.00
40047;BMP280;31510;48.122;11.576;2023-02-27T16:27:58;96063.78;;;-0.03
40047;BMP280;31510;48.122;11.576;2023-02-27T16:30:24;96078.28;;;-0.09
40047;BMP280;31510;48.122;11.576;2023-02-27T16:32:55;96083.16;;;-0.11
40047;BMP280;31510;48.122;11.576;2023-02-27T16:35:22;96085.00;;;-0.15
40047;BMP280;31510;48.122;11.576;2023-02-27T16:37:49;96084.59;;;-0.17
40047;BMP280;31510;48.122;11.576;2023-02-27T16:42:41;96082.78;;;-0.09